Portada
METAR-TAF:

METAR-TAF

Aeroports :

Kizilordà, Kazakhstan

latitud: 44-51N, longitud: 065-30E, altitud: 129 m

Observació

L'informe es va fer fa 26 minuts, a les 09:00 UTC
Vent 12 kt del Nord-Est
Temperatura 7°C
Humitat 57%
Pressió 1031 hPa
Visibilitat 10 km o més
sense núvols per sota de 1500 mi sense presència de cumulonimbus.

METAR: UAOO 120900Z 05006MPS CAVOK 07/M01 Q1031 R05/CLRD70 NOSIG RMK QFE761/1015

Hora: 15:26 (09:26 UTC)

Pronòstic

L'informe es va fer fa 1 hora i 26 minuts, a les 08:00 UTC
Pronòstic vàlid del 12 a les 09 UTC al 12 a les 18 UTC
Vent 16 kt del Est/Nord-Est
Visibilitat 10 km o més
sense núvols per sota de 1500 mi sense presència de cumulonimbus.

TAF: UAOO 120800Z 1209/1218 06008MPS CAVOK

Observacions i pronòstics meteorològics de més de 4000 aeroports (METAR i TAF).

Les estacions disponibles són els punts grocs i vermells al mapa.

Posi el ratolí al punt desitjat per veure el nom de l'estació.

Feu clic per veure les observacions i els pronòstics meteorològics.

Per canviar el mapa: feu clic els botons verds amb una creu de color negre per apropar; al botó verd amb un guió per allunyar la imatge; o en les fletxes verdes per a mapes adjacents.


METAR-TAF: